createdAt,value
2018-06-07T00:00:01.201Z,798.36
2018-06-07T00:00:05.321Z,798.38
2018-06-07T00:00:09.215Z,798.37
2018-06-07T00:00:13.524Z,798.32
2018-06-07T00:00:17.516Z,798.33
2018-06-07T00:00:21.508Z,798.34
2018-06-07T00:00:25.821Z,798.33
2018-06-07T00:00:29.925Z,798.32
2018-06-07T00:00:34.235Z,798.33
2018-06-07T00:00:38.449Z,798.33
2018-06-07T00:00:42.652Z,798.3
2018-06-07T00:00:46.959Z,798.3
2018-06-07T00:00:51.275Z,798.3
2018-06-07T00:00:55.585Z,798.31
2018-06-07T00:00:59.578Z,798.32
2018-06-07T00:01:03.886Z,798.3
2018-06-07T00:01:07.986Z,798.27
2018-06-07T00:01:12.195Z,798.29
2018-06-07T00:01:16.408Z,798.3
2018-06-07T00:01:20.515Z,798.28
2018-06-07T00:01:24.725Z,798.26
2018-06-07T00:01:28.822Z,798.29
2018-06-07T00:01:32.911Z,798.26
2018-06-07T00:01:37.111Z,798.27
2018-06-07T00:01:41.419Z,798.22
2018-06-07T00:01:45.726Z,798.25
2018-06-07T00:01:49.932Z,798.23
2018-06-07T00:01:54.238Z,798.23
2018-06-07T00:01:58.449Z,798.23
2018-06-07T00:02:02.570Z,798.25
2018-06-07T00:02:06.664Z,798.21
2018-06-07T00:02:10.763Z,798.21
2018-06-07T00:02:14.865Z,798.22
2018-06-07T00:02:19.082Z,798.18
2018-06-07T00:02:23.396Z,798.19
2018-06-07T00:02:27.602Z,798.18
2018-06-07T00:02:31.804Z,798.21
2018-06-07T00:02:35.901Z,798.17
2018-06-07T00:02:40.107Z,798.19
2018-06-07T00:02:44.421Z,798.21
2018-06-07T00:02:48.725Z,798.17
2018-06-07T00:02:52.932Z,798.17
2018-06-07T00:02:57.234Z,798.15
2018-06-07T00:03:01.439Z,798.14
2018-06-07T00:03:05.794Z,798.15
2018-06-07T00:03:10.106Z,798.18
2018-06-07T00:03:13.883Z,798.17
2018-06-07T00:03:18.205Z,798.14
2018-06-07T00:03:22.411Z,798.13
2018-06-07T00:03:26.614Z,798.11
2018-06-07T00:03:30.928Z,798.12
2018-06-07T00:03:35.134Z,798.11
2018-06-07T00:03:39.117Z,798.09
2018-06-07T00:03:43.337Z,798.06
2018-06-07T00:03:47.540Z,798.06
2018-06-07T00:03:51.637Z,798.05
2018-06-07T00:03:55.960Z,798.06
2018-06-07T00:04:00.161Z,798.09
2018-06-07T00:04:04.459Z,798.09
2018-06-07T00:04:08.664Z,798.11
2018-06-07T00:04:12.552Z,798.09
2018-06-07T00:04:16.868Z,798.05
2018-06-07T00:04:21.175Z,798.07
2018-06-07T00:04:25.375Z,798.07
2018-06-07T00:04:29.580Z,798.03
2018-06-07T00:04:33.783Z,798.06
2018-06-07T00:04:37.986Z,798.08
2018-06-07T00:04:42.078Z,798.07
2018-06-07T00:04:46.172Z,798.07
2018-06-07T00:04:50.266Z,798.05
2018-06-07T00:04:54.464Z,798.04
2018-06-07T00:04:58.665Z,798.06
2018-06-07T00:05:02.825Z,798.01
2018-06-07T00:05:07.030Z,798.03
2018-06-07T00:05:11.232Z,798
2018-06-07T00:05:15.453Z,798
2018-06-07T00:05:19.761Z,797.99
2018-06-07T00:05:23.911Z,798.01
2018-06-07T00:05:28.224Z,797.99
2018-06-07T00:05:32.545Z,797.99
2018-06-07T00:05:36.852Z,797.95
2018-06-07T00:05:40.853Z,798
2018-06-07T00:05:45.164Z,798
2018-06-07T00:05:49.365Z,797.98
2018-06-07T00:05:53.569Z,798
2018-06-07T00:05:57.877Z,797.96
2018-06-07T00:06:02.080Z,797.97
2018-06-07T00:06:06.072Z,797.96
2018-06-07T00:06:10.276Z,797.99
2018-06-07T00:06:14.482Z,798
2018-06-07T00:06:18.789Z,797.94
2018-06-07T00:06:23.100Z,797.95
2018-06-07T00:06:27.413Z,797.95
2018-06-07T00:06:31.618Z,797.94
2018-06-07T00:06:35.821Z,797.93
2018-06-07T00:06:40.135Z,797.88
2018-06-07T00:06:44.340Z,797.95
2018-06-07T00:06:48.546Z,797.93
2018-06-07T00:06:52.748Z,797.93
2018-06-07T00:06:57.059Z,797.9
2018-06-07T00:07:01.063Z,797.95
2018-06-07T00:07:05.159Z,797.94
2018-06-07T00:07:09.360Z,797.95
2018-06-07T00:07:13.676Z,797.93
2018-06-07T00:07:17.991Z,797.92
2018-06-07T00:07:22.091Z,797.9
2018-06-07T00:07:26.189Z,797.91
2018-06-07T00:07:30.286Z,797.9
2018-06-07T00:07:34.488Z,797.91
2018-06-07T00:07:38.686Z,797.89
2018-06-07T00:07:43.003Z,797.9
2018-06-07T00:07:47.103Z,797.9
2018-06-07T00:07:51.413Z,797.87
2018-06-07T00:07:55.657Z,797.88
2018-06-07T00:07:59.971Z,797.88
2018-06-07T00:08:04.069Z,797.88
2018-06-07T00:08:08.169Z,797.9
2018-06-07T00:08:12.381Z,797.87
2018-06-07T00:08:16.587Z,797.86
2018-06-07T00:08:20.908Z,797.9
2018-06-07T00:08:25.108Z,797.89
2018-06-07T00:08:29.210Z,797.86
2018-06-07T00:08:33.302Z,797.86
2018-06-07T00:08:37.557Z,797.86
2018-06-07T00:08:41.879Z,797.85
2018-06-07T00:08:46.087Z,797.87
2018-06-07T00:08:50.290Z,797.86
2018-06-07T00:08:54.500Z,797.82
2018-06-07T00:08:58.705Z,797.87
2018-06-07T00:09:02.909Z,797.83
2018-06-07T00:09:07.121Z,797.85
2018-06-07T00:09:11.434Z,797.85
2018-06-07T00:09:15.641Z,797.85
2018-06-07T00:09:19.951Z,797.8
2018-06-07T00:09:24.155Z,797.84
2018-06-07T00:09:28.355Z,797.83
2018-06-07T00:09:32.458Z,797.86
2018-06-07T00:09:36.668Z,797.86
2018-06-07T00:09:40.889Z,797.82
2018-06-07T00:09:45.101Z,797.84
2018-06-07T00:09:49.306Z,797.81
2018-06-07T00:09:53.508Z,797.82
2018-06-07T00:09:57.715Z,797.82
2018-06-07T00:10:02.033Z,797.81
2018-06-07T00:10:06.347Z,797.77
2018-06-07T00:10:10.556Z,797.81
2018-06-07T00:10:14.869Z,797.83
2018-06-07T00:10:19.080Z,797.8
2018-06-07T00:10:23.285Z,797.78
2018-06-07T00:10:27.592Z,797.8
2018-06-07T00:10:31.789Z,797.81
2018-06-07T00:10:35.989Z,797.83
2018-06-07T00:10:39.978Z,797.82
2018-06-07T00:10:44.077Z,797.82
2018-06-07T00:10:48.290Z,797.81
2018-06-07T00:10:52.396Z,797.8
2018-06-07T00:10:56.701Z,797.81
2018-06-07T00:11:00.688Z,797.8
2018-06-07T00:11:04.892Z,797.82
2018-06-07T00:11:09.100Z,797.82
2018-06-07T00:11:13.199Z,797.82
2018-06-07T00:11:17.413Z,797.79
2018-06-07T00:11:21.719Z,797.81
2018-06-07T00:11:25.921Z,797.82
2018-06-07T00:11:30.126Z,797.79
2018-06-07T00:11:34.218Z,797.78
2018-06-07T00:11:38.429Z,797.78
2018-06-07T00:11:42.628Z,797.81
2018-06-07T00:11:46.838Z,797.8
2018-06-07T00:11:51.043Z,797.79
2018-06-07T00:11:55.139Z,797.83
2018-06-07T00:11:59.339Z,797.76
2018-06-07T00:12:03.557Z,797.73
2018-06-07T00:12:07.657Z,797.77
2018-06-07T00:12:11.862Z,797.78
2018-06-07T00:12:16.067Z,797.77
2018-06-07T00:12:19.946Z,797.75
2018-06-07T00:12:24.154Z,797.78
2018-06-07T00:12:28.362Z,797.78
2018-06-07T00:12:32.459Z,797.8
2018-06-07T00:12:36.763Z,797.76
2018-06-07T00:12:41.067Z,797.79
2018-06-07T00:12:45.269Z,797.78
2018-06-07T00:12:49.382Z,797.76
2018-06-07T00:12:53.478Z,797.76
2018-06-07T00:12:57.785Z,797.74
2018-06-07T00:13:02.347Z,797.71
2018-06-07T00:13:06.444Z,797.77
2018-06-07T00:13:10.749Z,797.75
2018-06-07T00:13:14.847Z,797.75
2018-06-07T00:13:18.944Z,797.76
2018-06-07T00:13:23.159Z,797.75
2018-06-07T00:13:27.361Z,797.76
2018-06-07T00:13:31.466Z,797.78
2018-06-07T00:13:35.668Z,797.76
2018-06-07T00:13:39.973Z,797.77
2018-06-07T00:13:44.081Z,797.78
2018-06-07T00:13:48.286Z,797.75
2018-06-07T00:13:52.382Z,797.73
2018-06-07T00:13:56.698Z,797.76
2018-06-07T00:14:00.902Z,797.76
2018-06-07T00:14:05.200Z,797.73
2018-06-07T00:14:09.299Z,797.75
2018-06-07T00:14:13.607Z,797.72
2018-06-07T00:14:17.701Z,797.76
2018-06-07T00:14:21.910Z,797.75
2018-06-07T00:14:26.007Z,797.71
2018-06-07T00:14:30.115Z,797.74
2018-06-07T00:14:34.315Z,797.71
2018-06-07T00:14:38.515Z,797.75
2018-06-07T00:14:42.722Z,797.72
2018-06-07T00:14:47.028Z,797.74
2018-06-07T00:14:51.334Z,797.74
2018-06-07T00:14:55.641Z,797.73
2018-06-07T00:14:59.842Z,797.74
2018-06-07T00:15:03.729Z,797.74
2018-06-07T00:15:07.944Z,797.73
2018-06-07T00:15:12.044Z,797.73
2018-06-07T00:15:16.140Z,797.72
2018-06-07T00:15:20.455Z,797.73
2018-06-07T00:15:24.768Z,797.7
2018-06-07T00:15:28.972Z,797.71
2018-06-07T00:15:33.181Z,797.7
2018-06-07T00:15:37.385Z,797.71
2018-06-07T00:15:41.594Z,797.7
2018-06-07T00:15:45.910Z,797.7
2018-06-07T00:15:50.010Z,797.69
2018-06-07T00:15:54.109Z,797.69
2018-06-07T00:15:58.308Z,797.67
2018-06-07T00:16:02.512Z,797.66
2018-06-07T00:16:06.397Z,797.67
2018-06-07T00:16:10.494Z,797.69
2018-06-07T00:16:14.745Z,797.7
2018-06-07T00:16:19.059Z,797.69
2018-06-07T00:16:23.375Z,797.7
2018-06-07T00:16:27.577Z,797.68
2018-06-07T00:16:31.883Z,797.67
2018-06-07T00:16:36.194Z,797.63
2018-06-07T00:16:40.397Z,797.65
2018-06-07T00:16:44.754Z,797.66
2018-06-07T00:16:48.962Z,797.68
2018-06-07T00:16:53.059Z,797.66
2018-06-07T00:16:57.419Z,797.65
2018-06-07T00:17:01.630Z,797.67
2018-06-07T00:17:05.846Z,797.65
2018-06-07T00:17:10.050Z,797.67
2018-06-07T00:17:14.147Z,797.64
2018-06-07T00:17:18.467Z,797.65
2018-06-07T00:17:22.775Z,797.64
2018-06-07T00:17:26.979Z,797.63
2018-06-07T00:17:31.183Z,797.64
2018-06-07T00:17:35.386Z,797.67
2018-06-07T00:17:39.597Z,797.63
2018-06-07T00:17:43.909Z,797.61
2018-06-07T00:17:48.226Z,797.69
2018-06-07T00:17:52.438Z,797.66
2018-06-07T00:17:56.751Z,797.64
2018-06-07T00:18:00.741Z,797.64
2018-06-07T00:18:04.949Z,797.64
2018-06-07T00:18:09.047Z,797.66
2018-06-07T00:18:13.363Z,797.59
2018-06-07T00:18:17.677Z,797.59
2018-06-07T00:18:21.989Z,797.6
2018-06-07T00:18:26.195Z,797.61
2018-06-07T00:18:30.508Z,797.66
2018-06-07T00:18:34.824Z,797.64
2018-06-07T00:18:39.028Z,797.63
2018-06-07T00:18:43.228Z,797.63
2018-06-07T00:18:47.539Z,797.6
2018-06-07T00:18:51.634Z,797.6
2018-06-07T00:18:55.835Z,797.59
2018-06-07T00:19:00.036Z,797.62
2018-06-07T00:19:04.134Z,797.63
2018-06-07T00:19:08.129Z,797.64
2018-06-07T00:19:12.329Z,797.64
2018-06-07T00:19:16.534Z,797.65
2018-06-07T00:19:20.739Z,797.6
2018-06-07T00:19:24.948Z,797.64
2018-06-07T00:19:29.149Z,797.61
2018-06-07T00:19:33.349Z,797.59
2018-06-07T00:19:37.660Z,797.63
2018-06-07T00:19:41.656Z,797.64
2018-06-07T00:19:45.772Z,797.63
2018-06-07T00:19:50.085Z,797.6
2018-06-07T00:19:54.395Z,797.62
2018-06-07T00:19:58.598Z,797.59
2018-06-07T00:20:02.928Z,797.62
2018-06-07T00:20:06.923Z,797.61
2018-06-07T00:20:11.147Z,797.61
2018-06-07T00:20:15.357Z,797.58
2018-06-07T00:20:19.452Z,797.6
2018-06-07T00:20:23.561Z,797.58
2018-06-07T00:20:27.867Z,797.58
2018-06-07T00:20:31.853Z,797.58
2018-06-07T00:20:36.168Z,797.59
2018-06-07T00:20:40.371Z,797.55
2018-06-07T00:20:44.575Z,797.57
2018-06-07T00:20:48.780Z,797.58
2018-06-07T00:20:52.879Z,797.58
2018-06-07T00:20:57.083Z,797.57
2018-06-07T00:21:01.391Z,797.56
2018-06-07T00:21:05.393Z,797.56
2018-06-07T00:21:09.596Z,797.6
2018-06-07T00:21:13.690Z,797.58
2018-06-07T00:21:17.784Z,797.55
2018-06-07T00:21:21.980Z,797.56
2018-06-07T00:21:25.969Z,797.57
2018-06-07T00:21:30.280Z,797.56
2018-06-07T00:21:34.478Z,797.56
2018-06-07T00:21:38.793Z,797.58
2018-06-07T00:21:43.000Z,797.55
2018-06-07T00:21:47.314Z,797.55
2018-06-07T00:21:51.517Z,797.57
2018-06-07T00:21:55.719Z,797.56
2018-06-07T00:22:00.033Z,797.58
2018-06-07T00:22:04.188Z,797.54
2018-06-07T00:22:08.178Z,797.53
2018-06-07T00:22:12.390Z,797.55
2018-06-07T00:22:16.700Z,797.54
2018-06-07T00:22:20.908Z,797.56
2018-06-07T00:22:25.115Z,797.51
2018-06-07T00:22:29.256Z,797.55
2018-06-07T00:22:33.249Z,797.56
2018-06-07T00:22:37.353Z,797.56
2018-06-07T00:22:41.660Z,797.5
2018-06-07T00:22:45.967Z,797.57
2018-06-07T00:22:50.281Z,797.52
2018-06-07T00:22:54.585Z,797.54
2018-06-07T00:22:58.939Z,797.53
2018-06-07T00:23:02.936Z,797.52
2018-06-07T00:23:06.930Z,797.51
2018-06-07T00:23:11.138Z,797.52
2018-06-07T00:23:15.461Z,797.52
2018-06-07T00:23:19.666Z,797.49
2018-06-07T00:23:23.870Z,797.54
2018-06-07T00:23:27.911Z,797.53
2018-06-07T00:23:32.011Z,797.51
2018-06-07T00:23:35.999Z,797.54
2018-06-07T00:23:40.209Z,797.51
2018-06-07T00:23:44.413Z,797.53
2018-06-07T00:23:48.629Z,797.51
2018-06-07T00:23:52.938Z,797.46
2018-06-07T00:23:56.932Z,797.5
2018-06-07T00:24:01.242Z,797.47
2018-06-07T00:24:05.599Z,797.46
2018-06-07T00:24:09.802Z,797.52
2018-06-07T00:24:13.896Z,797.49
2018-06-07T00:24:17.995Z,797.48
2018-06-07T00:24:22.101Z,797.48
2018-06-07T00:24:26.232Z,797.49
2018-06-07T00:24:30.340Z,797.51
2018-06-07T00:24:34.436Z,797.52
2018-06-07T00:24:38.745Z,797.5
2018-06-07T00:24:42.841Z,797.5
2018-06-07T00:24:47.051Z,797.5
2018-06-07T00:24:51.253Z,797.5
2018-06-07T00:24:55.460Z,797.41
2018-06-07T00:24:59.777Z,797.49
2018-06-07T00:25:03.879Z,797.49
2018-06-07T00:25:07.973Z,797.5
2018-06-07T00:25:12.068Z,797.5
2018-06-07T00:25:16.268Z,797.47
2018-06-07T00:25:20.483Z,797.45
2018-06-07T00:25:24.798Z,797.51
2018-06-07T00:25:28.901Z,797.48
2018-06-07T00:25:33.105Z,797.48
2018-06-07T00:25:37.425Z,797.48
2018-06-07T00:25:41.628Z,797.52
2018-06-07T00:25:45.939Z,797.51
2018-06-07T00:25:50.141Z,797.48
2018-06-07T00:25:54.343Z,797.49
2018-06-07T00:25:58.335Z,797.48
2018-06-07T00:26:02.646Z,797.47
2018-06-07T00:26:06.634Z,797.53
2018-06-07T00:26:10.729Z,797.49
2018-06-07T00:26:14.937Z,797.45
2018-06-07T00:26:19.142Z,797.43
2018-06-07T00:26:23.242Z,797.45
2018-06-07T00:26:27.343Z,797.47
2018-06-07T00:26:31.547Z,797.44
2018-06-07T00:26:35.889Z,797.46
2018-06-07T00:26:40.033Z,797.5
2018-06-07T00:26:44.281Z,797.51
2018-06-07T00:26:48.520Z,797.51
2018-06-07T00:26:52.833Z,797.48
2018-06-07T00:26:57.038Z,797.49
2018-06-07T00:27:01.282Z,797.5
2018-06-07T00:27:05.648Z,797.48
2018-06-07T00:27:09.765Z,797.49
2018-06-07T00:27:13.864Z,797.45
2018-06-07T00:27:18.080Z,797.48
2018-06-07T00:27:22.292Z,797.49
2018-06-07T00:27:26.286Z,797.48
2018-06-07T00:27:30.382Z,797.47
2018-06-07T00:27:34.582Z,797.47
2018-06-07T00:27:38.782Z,797.41
2018-06-07T00:27:42.999Z,797.4
2018-06-07T00:27:47.306Z,797.42
2018-06-07T00:27:51.517Z,797.49
2018-06-07T00:27:55.822Z,797.48
2018-06-07T00:28:00.133Z,797.5
2018-06-07T00:28:04.122Z,797.48
2018-06-07T00:28:08.220Z,797.44
2018-06-07T00:28:12.315Z,797.49
2018-06-07T00:28:16.411Z,797.49
2018-06-07T00:28:20.614Z,797.48
2018-06-07T00:28:24.815Z,797.47
2018-06-07T00:28:29.022Z,797.5
2018-06-07T00:28:33.224Z,797.5
2018-06-07T00:28:37.213Z,797.49
2018-06-07T00:28:41.415Z,797.47
2018-06-07T00:28:45.622Z,797.44
2018-06-07T00:28:49.824Z,797.47
2018-06-07T00:28:54.134Z,797.49
2018-06-07T00:28:58.460Z,797.51
2018-06-07T00:29:02.553Z,797.53
2018-06-07T00:29:06.767Z,797.51
2018-06-07T00:29:11.072Z,797.51
2018-06-07T00:29:15.178Z,797.45
2018-06-07T00:29:19.380Z,797.51
2018-06-07T00:29:23.583Z,797.52
2018-06-07T00:29:27.685Z,797.52
2018-06-07T00:29:31.887Z,797.51
2018-06-07T00:29:35.983Z,797.52
2018-06-07T00:29:40.291Z,797.54
2018-06-07T00:29:44.606Z,797.55
2018-06-07T00:29:48.814Z,797.57
2018-06-07T00:29:53.128Z,797.55
2018-06-07T00:29:57.436Z,797.54
2018-06-07T00:30:01.749Z,797.55
2018-06-07T00:30:06.020Z,797.58
2018-06-07T00:30:10.119Z,797.6
2018-06-07T00:30:14.218Z,797.59
2018-06-07T00:30:18.211Z,797.52
2018-06-07T00:30:22.537Z,797.53
2018-06-07T00:30:26.740Z,797.56
2018-06-07T00:30:31.070Z,797.61
2018-06-07T00:30:35.168Z,797.61
2018-06-07T00:30:39.375Z,797.6
2018-06-07T00:30:43.588Z,797.62
2018-06-07T00:30:47.697Z,797.62
2018-06-07T00:30:51.791Z,797.63
2018-06-07T00:30:56.100Z,797.64
2018-06-07T00:31:00.306Z,797.64
2018-06-07T00:31:04.518Z,797.66
2018-06-07T00:31:08.714Z,797.66
2018-06-07T00:31:12.922Z,797.64
2018-06-07T00:31:16.913Z,797.64
2018-06-07T00:31:21.010Z,797.69
2018-06-07T00:31:25.215Z,797.7
2018-06-07T00:31:29.414Z,797.71
2018-06-07T00:31:33.625Z,797.74
2018-06-07T00:31:37.991Z,797.74
2018-06-07T00:31:42.195Z,797.72
2018-06-07T00:31:46.405Z,797.75
2018-06-07T00:31:50.510Z,797.79
2018-06-07T00:31:54.718Z,797.74
2018-06-07T00:31:58.931Z,797.71
2018-06-07T00:32:03.136Z,797.74
2018-06-07T00:32:07.342Z,797.76
2018-06-07T00:32:11.553Z,797.79
2018-06-07T00:32:15.867Z,797.79
2018-06-07T00:32:20.183Z,797.78
2018-06-07T00:32:24.495Z,797.81
2018-06-07T00:32:28.594Z,797.82
2018-06-07T00:32:32.903Z,797.79
2018-06-07T00:32:37.108Z,797.78
2018-06-07T00:32:41.215Z,797.77
2018-06-07T00:32:45.418Z,797.82
2018-06-07T00:32:49.517Z,797.84
2018-06-07T00:32:53.724Z,797.86
2018-06-07T00:32:57.934Z,797.85
2018-06-07T00:33:02.189Z,797.86
2018-06-07T00:33:06.077Z,797.89
2018-06-07T00:33:10.174Z,797.84
2018-06-07T00:33:14.284Z,797.87
2018-06-07T00:33:18.599Z,797.89
2018-06-07T00:33:22.591Z,797.9
2018-06-07T00:33:26.906Z,797.89
2018-06-07T00:33:31.109Z,797.89
2018-06-07T00:33:35.311Z,797.92
2018-06-07T00:33:39.512Z,797.94
2018-06-07T00:33:43.818Z,797.9
2018-06-07T00:33:48.017Z,797.92
2018-06-07T00:33:52.116Z,797.91
2018-06-07T00:33:56.218Z,797.94
2018-06-07T00:34:00.463Z,797.93
2018-06-07T00:34:04.675Z,797.96
2018-06-07T00:34:08.995Z,797.96
2018-06-07T00:34:13.097Z,797.98
2018-06-07T00:34:17.094Z,797.94
2018-06-07T00:34:21.296Z,797.96
2018-06-07T00:34:25.495Z,797.95
2018-06-07T00:34:29.594Z,798
2018-06-07T00:34:33.909Z,797.98
2018-06-07T00:34:38.227Z,797.99
2018-06-07T00:34:42.429Z,797.99
2018-06-07T00:34:46.633Z,798
2018-06-07T00:34:50.622Z,798.01
2018-06-07T00:34:54.727Z,798.03
2018-06-07T00:34:58.821Z,798.04
2018-06-07T00:35:03.022Z,798.03
2018-06-07T00:35:07.232Z,798.06
2018-06-07T00:35:11.541Z,798.05
2018-06-07T00:35:15.637Z,798.06
2018-06-07T00:35:19.839Z,798.09
2018-06-07T00:35:24.043Z,798.06
2018-06-07T00:35:28.248Z,798.06
2018-06-07T00:35:32.556Z,798.1
2018-06-07T00:35:36.860Z,798.11
2018-06-07T00:35:40.958Z,798.12
2018-06-07T00:35:45.157Z,798.13
2018-06-07T00:35:49.484Z,798.16
2018-06-07T00:35:53.796Z,798.14
2018-06-07T00:35:58.108Z,798.12
2018-06-07T00:36:02.199Z,798.15
2018-06-07T00:36:06.191Z,798.11
2018-06-07T00:36:10.287Z,798.14
2018-06-07T00:36:14.495Z,798.15
2018-06-07T00:36:18.600Z,798.17
2018-06-07T00:36:22.917Z,798.15
2018-06-07T00:36:27.123Z,798.17
2018-06-07T00:36:31.327Z,798.19
2018-06-07T00:36:35.430Z,798.17
2018-06-07T00:36:39.524Z,798.19
2018-06-07T00:36:43.829Z,798.17
2018-06-07T00:36:48.136Z,798.2
2018-06-07T00:36:52.338Z,798.17
2018-06-07T00:36:56.654Z,798.21
2018-06-07T00:37:00.968Z,798.21
2018-06-07T00:37:05.171Z,798.2
2018-06-07T00:37:09.271Z,798.21
2018-06-07T00:37:13.598Z,798.22
2018-06-07T00:37:17.907Z,798.21
2018-06-07T00:37:22.115Z,798.21
2018-06-07T00:37:26.432Z,798.27
2018-06-07T00:37:30.752Z,798.2
2018-06-07T00:37:34.946Z,798.27
2018-06-07T00:37:39.152Z,798.23
2018-06-07T00:37:43.463Z,798.26
2018-06-07T00:37:47.669Z,798.28
2018-06-07T00:37:51.665Z,798.27
2018-06-07T00:37:55.972Z,798.24
2018-06-07T00:38:00.173Z,798.26
2018-06-07T00:38:04.164Z,798.26
2018-06-07T00:38:08.272Z,798.27
2018-06-07T00:38:12.582Z,798.27
2018-06-07T00:38:16.788Z,798.28
2018-06-07T00:38:20.882Z,798.26
2018-06-07T00:38:24.877Z,798.27
2018-06-07T00:38:29.183Z,798.26
2018-06-07T00:38:33.173Z,798.25
2018-06-07T00:38:37.266Z,798.25
2018-06-07T00:38:41.290Z,798.27
2018-06-07T00:38:45.438Z,798.26
2018-06-07T00:38:49.745Z,798.26
2018-06-07T00:38:53.952Z,798.26
2018-06-07T00:38:58.156Z,798.25
2018-06-07T00:39:02.359Z,798.23
2018-06-07T00:39:06.562Z,798.26
2018-06-07T00:39:10.828Z,798.24
2018-06-07T00:39:14.877Z,798.26
2018-06-07T00:39:19.753Z,798.29
2018-06-07T00:39:24.308Z,798.25
2018-06-07T00:39:28.190Z,798.26
2018-06-07T00:39:32.295Z,798.23
2018-06-07T00:39:36.507Z,798.23
2018-06-07T00:39:40.821Z,798.26
2018-06-07T00:39:45.039Z,798.31
2018-06-07T00:39:49.239Z,798.28
2018-06-07T00:39:53.336Z,798.25
2018-06-07T00:39:57.547Z,798.25
2018-06-07T00:40:01.752Z,798.23
2018-06-07T00:40:06.064Z,798.23
2018-06-07T00:40:10.272Z,798.23
2018-06-07T00:40:14.475Z,798.3
2018-06-07T00:40:18.830Z,798.22
2018-06-07T00:40:22.926Z,798.19
2018-06-07T00:40:27.131Z,798.26
2018-06-07T00:40:31.343Z,798.25
2018-06-07T00:40:35.657Z,798.27
2018-06-07T00:40:39.756Z,798.28
2018-06-07T00:40:43.966Z,798.22
2018-06-07T00:40:48.213Z,798.26
2018-06-07T00:40:52.416Z,798.25
2018-06-07T00:40:56.741Z,798.26
2018-06-07T00:41:01.110Z,798.25
2018-06-07T00:41:05.313Z,798.23
2018-06-07T00:41:09.196Z,798.22
2018-06-07T00:41:13.299Z,798.22
2018-06-07T00:41:17.501Z,798.23
2018-06-07T00:41:21.593Z,798.26
2018-06-07T00:41:25.796Z,798.23
2018-06-07T00:41:29.997Z,798.23
2018-06-07T00:41:34.209Z,798.21
2018-06-07T00:41:38.526Z,798.21
2018-06-07T00:41:42.728Z,798.22
2018-06-07T00:41:46.931Z,798.22
2018-06-07T00:41:50.934Z,798.23
2018-06-07T00:41:55.135Z,798.22
2018-06-07T00:41:59.237Z,798.2
2018-06-07T00:42:03.334Z,798.19
2018-06-07T00:42:07.540Z,798.22
2018-06-07T00:42:11.750Z,798.19
2018-06-07T00:42:15.957Z,798.18
2018-06-07T00:42:20.184Z,798.22
2018-06-07T00:42:24.180Z,798.19
2018-06-07T00:42:28.392Z,798.19
2018-06-07T00:42:32.700Z,798.18
2018-06-07T00:42:36.907Z,798.16
2018-06-07T00:42:41.224Z,798.19
2018-06-07T00:42:45.332Z,798.18
2018-06-07T00:42:49.645Z,798.15
2018-06-07T00:42:53.962Z,798.17
2018-06-07T00:42:58.178Z,798.16
2018-06-07T00:43:02.382Z,798.14
2018-06-07T00:43:06.633Z,798.14
2018-06-07T00:43:10.844Z,798.14
2018-06-07T00:43:15.197Z,798.15
2018-06-07T00:43:19.291Z,798.12
2018-06-07T00:43:23.495Z,798.13
2018-06-07T00:43:27.692Z,798.13
2018-06-07T00:43:31.899Z,798.15
2018-06-07T00:43:36.000Z,798.09
2018-06-07T00:43:40.096Z,798.12
2018-06-07T00:43:44.194Z,798.12
2018-06-07T00:43:48.511Z,798.1
2018-06-07T00:43:52.833Z,798.06
2018-06-07T00:43:57.146Z,798.09
2018-06-07T00:44:01.136Z,798.09
2018-06-07T00:44:05.020Z,798.06
2018-06-07T00:44:09.232Z,798.09
2018-06-07T00:44:13.330Z,798.1
2018-06-07T00:44:17.550Z,798.06
2018-06-07T00:44:21.541Z,798.03
2018-06-07T00:44:25.532Z,798.03
2018-06-07T00:44:29.418Z,798.09
2018-06-07T00:44:33.523Z,798.04
2018-06-07T00:44:37.620Z,798.05
2018-06-07T00:44:41.930Z,798.05
2018-06-07T00:44:46.134Z,798.04
2018-06-07T00:44:50.231Z,798.02
2018-06-07T00:44:54.545Z,798.01
2018-06-07T00:44:58.643Z,797.98
2018-06-07T00:45:02.807Z,798.01
2018-06-07T00:45:07.049Z,797.99
2018-06-07T00:45:11.039Z,797.94
2018-06-07T00:45:15.353Z,797.97
2018-06-07T00:45:19.446Z,797.96
2018-06-07T00:45:23.540Z,797.98
2018-06-07T00:45:27.539Z,797.96
2018-06-07T00:45:31.651Z,797.97
2018-06-07T00:45:35.965Z,797.97
2018-06-07T00:45:40.274Z,797.97
2018-06-07T00:45:44.578Z,797.95
2018-06-07T00:45:48.800Z,797.95
2018-06-07T00:45:53.004Z,797.95
2018-06-07T00:45:56.995Z,797.92
2018-06-07T00:46:01.309Z,797.92
2018-06-07T00:46:05.423Z,797.89
2018-06-07T00:46:09.420Z,797.94
2018-06-07T00:46:13.623Z,797.92
2018-06-07T00:46:18.080Z,797.95
2018-06-07T00:46:22.737Z,797.91
2018-06-07T00:46:27.468Z,797.9
2018-06-07T00:46:31.786Z,797.9
2018-06-07T00:46:36.118Z,797.88
2018-06-07T00:46:40.426Z,797.88
2018-06-07T00:46:44.748Z,797.86
2018-06-07T00:46:49.064Z,797.86
2018-06-07T00:46:53.158Z,797.86
2018-06-07T00:46:57.470Z,797.86
2018-06-07T00:47:01.677Z,797.86
2018-06-07T00:47:05.675Z,797.85
2018-06-07T00:47:09.996Z,797.83
2018-06-07T00:47:14.201Z,797.81
2018-06-07T00:47:18.510Z,797.84
2018-06-07T00:47:22.827Z,797.84
2018-06-07T00:47:27.038Z,797.8
2018-06-07T00:47:31.242Z,797.82
2018-06-07T00:47:35.559Z,797.81
2018-06-07T00:47:39.774Z,797.83
2018-06-07T00:47:43.977Z,797.82
2018-06-07T00:47:48.071Z,797.82
2018-06-07T00:47:52.268Z,797.81
2018-06-07T00:47:56.366Z,797.79
2018-06-07T00:48:00.571Z,797.79
2018-06-07T00:48:04.775Z,797.77
2018-06-07T00:48:08.987Z,797.79
2018-06-07T00:48:13.205Z,797.81
2018-06-07T00:48:17.414Z,797.77
2018-06-07T00:48:21.511Z,797.78
2018-06-07T00:48:25.828Z,797.79
2018-06-07T00:48:29.918Z,797.81
2018-06-07T00:48:34.020Z,797.78
2018-06-07T00:48:38.125Z,797.76
2018-06-07T00:48:42.429Z,797.76
2018-06-07T00:48:46.459Z,797.78
2018-06-07T00:48:50.772Z,797.75
2018-06-07T00:48:55.077Z,797.77
2018-06-07T00:48:59.394Z,797.81
2018-06-07T00:49:03.489Z,797.75
2018-06-07T00:49:07.476Z,797.78
2018-06-07T00:49:11.680Z,797.8
2018-06-07T00:49:15.792Z,797.79
2018-06-07T00:49:19.997Z,797.73
2018-06-07T00:49:24.360Z,797.79
2018-06-07T00:49:28.459Z,797.79
2018-06-07T00:49:32.768Z,797.78
2018-06-07T00:49:37.097Z,797.76
2018-06-07T00:49:41.302Z,797.74
2018-06-07T00:49:45.406Z,797.75
2018-06-07T00:49:49.609Z,797.77
2018-06-07T00:49:53.831Z,797.81
2018-06-07T00:49:58.146Z,797.77
2018-06-07T00:50:02.347Z,797.8
2018-06-07T00:50:06.441Z,797.8
2018-06-07T00:50:10.551Z,797.74
2018-06-07T00:50:14.434Z,797.78
2018-06-07T00:50:18.762Z,797.79
2018-06-07T00:50:22.855Z,797.77
2018-06-07T00:50:26.956Z,797.78
2018-06-07T00:50:31.165Z,797.8
2018-06-07T00:50:35.476Z,797.76
2018-06-07T00:50:39.854Z,797.8
2018-06-07T00:50:44.206Z,797.8
2018-06-07T00:50:48.527Z,797.8
2018-06-07T00:50:52.734Z,797.78
2018-06-07T00:50:56.829Z,797.8
2018-06-07T00:51:01.141Z,797.81
2018-06-07T00:51:05.355Z,797.76
2018-06-07T00:51:09.239Z,797.78
2018-06-07T00:51:13.553Z,797.8
2018-06-07T00:51:17.861Z,797.77
2018-06-07T00:51:21.962Z,797.8
2018-06-07T00:51:26.159Z,797.77
2018-06-07T00:51:30.261Z,797.76
2018-06-07T00:51:34.568Z,797.76
2018-06-07T00:51:38.670Z,797.77
2018-06-07T00:51:42.783Z,797.8
2018-06-07T00:51:46.986Z,797.76
2018-06-07T00:51:50.975Z,797.75
2018-06-07T00:51:55.185Z,797.75
2018-06-07T00:51:59.286Z,797.76
2018-06-07T00:52:03.536Z,797.77
2018-06-07T00:52:07.525Z,797.78
2018-06-07T00:52:11.756Z,797.77
2018-06-07T00:52:15.854Z,797.73
2018-06-07T00:52:19.959Z,797.77
2018-06-07T00:52:24.055Z,797.77
2018-06-07T00:52:28.170Z,797.78
2018-06-07T00:52:32.380Z,797.75